Time;durP1;ratioP1;P1;durP2;ratioP2;P2;SDS_P1;SDS_P2;PMS_P1;PMS_P2;Temp;Humidity;BMP_temperature;BMP_pressure;BME280_temperature;BME280_humidity;BME280_pressure;Samples;Min_cycle;Max_cycle;Signal;HPM_P1;HPM_P2
2022/08/12 00:43:01;;;;;;;7.32;3.20;;;13.70;99.90;;;;;;5034562;28;20060;-77
2022/08/12 00:46:29;;;;;;;6.53;2.78;;;13.60;99.90;;;;;;5036163;28;20106;-77
2022/08/12 00:48:17;;;;;;;7.55;2.47;;;13.60;99.90;;;;;;5053905;28;20059;-76
2022/08/12 00:50:47;;;;;;;4.57;2.42;;;13.60;99.90;;;;;;5035979;28;20068;-77
2022/08/12 00:53:16;;;;;;;5.00;2.35;;;13.70;99.90;;;;;;5053743;28;20053;-76
2022/08/12 00:55:45;;;;;;;6.40;2.60;;;13.80;99.90;;;;;;5053239;28;20048;-76
2022/08/12 00:58:23;;;;;;;9.43;2.72;;;13.70;99.90;;;;;;5035470;28;20045;-76
2022/08/12 01:00:51;;;;;;;4.85;2.47;;;13.60;99.90;;;;;;5055730;28;20075;-76
2022/08/12 01:03:20;;;;;;;5.68;2.70;;;13.60;99.90;;;;;;5039374;28;20463;-75
2022/08/12 01:11:31;;;;;;;4.20;2.50;;;13.50;99.90;;;;;;5056957;28;20040;-76
2022/08/12 01:14:02;;;;;;;3.88;2.80;;;13.30;99.90;;;;;;5058942;28;20044;-76
2022/08/12 01:16:29;;;;;;;4.65;2.70;;;13.30;99.90;;;;;;5046333;28;20099;-77
2022/08/12 01:18:58;;;;;;;5.28;2.78;;;13.40;99.90;;;;;;5052416;28;20393;-76
2022/08/12 01:21:43;;;;;;;7.07;2.53;;;13.30;99.90;;;;;;5057447;28;20447;-78
2022/08/12 01:24:33;;;;;;;7.25;3.53;;;13.30;99.90;;;;;;5058781;28;20124;-76
2022/08/12 01:27:02;;;;;;;11.60;7.22;;;13.30;99.90;;;;;;5062102;28;20124;-75
2022/08/12 01:29:33;;;;;;;13.10;7.95;;;13.30;99.90;;;;;;5069352;28;20040;-75
2022/08/12 01:32:05;;;;;;;14.35;7.53;;;13.30;99.90;;;;;;5077363;28;20037;-77
2022/08/12 01:34:37;;;;;;;9.77;5.95;;;13.30;99.90;;;;;;5058759;28;20140;-75
2022/08/12 01:37:06;;;;;;;5.70;2.88;;;13.20;99.90;;;;;;5045725;28;20056;-76
2022/08/12 01:39:39;;;;;;;6.95;2.83;;;13.30;99.90;;;;;;5039593;28;20053;-75
2022/08/12 01:42:10;;;;;;;5.57;2.92;;;13.20;99.90;;;;;;5039367;28;20128;-75
2022/08/12 01:44:38;;;;;;;5.78;2.70;;;13.10;99.90;;;;;;5039222;28;20476;-76
2022/08/12 01:47:18;;;;;;;7.25;3.13;;;13.10;99.90;;;;;;5048610;28;20044;-77
2022/08/12 01:50:01;;;;;;;6.30;3.25;;;13.00;99.90;;;;;;5051892;28;20072;-78
2022/08/12 01:52:44;;;;;;;5.65;2.83;;;12.90;99.90;;;;;;5061079;28;20083;-77
2022/08/12 01:55:15;;;;;;;5.63;2.80;;;12.80;99.90;;;;;;5058882;28;20534;-78
2022/08/12 01:57:47;;;;;;;7.88;2.78;;;12.90;99.90;;;;;;5041786;28;20076;-77
2022/08/12 02:00:16;;;;;;;4.75;3.10;;;12.80;99.90;;;;;;5057651;28;20045;-78
2022/08/12 02:02:50;;;;;;;5.22;2.80;;;12.80;99.90;;;;;;5070793;28;20037;-79
2022/08/12 02:11:20;;;;;;;5.45;3.10;;;12.80;99.90;;;;;;5055985;28;20044;-75
2022/08/12 02:14:12;;;;;;;9.57;3.67;;;12.90;99.90;;;;;;5056182;28;20045;-75
2022/08/12 02:16:58;;;;;;;4.60;2.83;;;12.80;99.90;;;;;;5056698;28;20041;-77
2022/08/12 02:19:42;;;;;;;7.72;3.20;;;12.80;99.90;;;;;;5059277;28;20119;-75
2022/08/12 02:22:22;;;;;;;6.35;3.55;;;12.70;99.90;;;;;;5056403;28;20073;-77
2022/08/12 02:24:51;;;;;;;6.10;3.65;;;12.60;99.90;;;;;;5038936;28;20075;-75
2022/08/12 02:27:21;;;;;;;4.85;3.40;;;12.60;99.90;;;;;;5056205;28;20492;-77
2022/08/12 02:29:48;;;;;;;7.40;3.17;;;12.60;99.90;;;;;;5055881;28;20049;-77
2022/08/12 02:32:16;;;;;;;5.57;3.00;;;12.70;99.90;;;;;;5056154;28;20427;-75
2022/08/12 02:34:44;;;;;;;5.72;3.10;;;12.70;99.90;;;;;;5055727;28;20041;-76
2022/08/12 02:37:15;;;;;;;5.43;2.90;;;12.70;99.90;;;;;;5055950;28;20480;-77
2022/08/12 02:39:48;;;;;;;8.55;3.22;;;12.70;99.90;;;;;;5055965;28;20044;-77
2022/08/12 02:42:16;;;;;;;6.22;3.65;;;12.70;99.90;;;;;;5056122;28;20091;-76
2022/08/12 02:44:47;;;;;;;5.55;3.35;;;12.60;99.90;;;;;;5056079;28;20419;-77
2022/08/12 02:47:19;;;;;;;7.63;3.70;;;12.60;99.90;;;;;;5056529;28;20357;-75
2022/08/12 02:49:51;;;;;;;9.10;3.55;;;12.60;99.90;;;;;;5037810;28;20156;-76
2022/08/12 02:52:19;;;;;;;5.15;3.35;;;12.60;99.90;;;;;;5054968;28;20056;-77
2022/08/12 02:54:53;;;;;;;6.20;3.33;;;12.60;99.90;;;;;;5055136;28;20099;-77
2022/08/12 02:57:22;;;;;;;6.82;3.63;;;12.60;99.90;;;;;;5055812;28;20045;-76
2022/08/12 02:59:52;;;;;;;10.80;3.42;;;12.60;99.90;;;;;;5037814;28;20055;-76
2022/08/12 03:02:22;;;;;;;7.82;3.78;;;12.60;99.90;;;;;;5055416;28;20484;-77
2022/08/12 03:04:55;;;;;;;10.50;3.88;;;12.60;99.90;;;;;;5054926;28;20128;-76
2022/08/12 03:07:34;;;;;;;5.38;3.30;;;12.60;99.90;;;;;;5055459;28;20041;-76
2022/08/12 03:10:07;;;;;;;6.28;3.40;;;12.60;99.90;;;;;;5037104;28;20056;-75
2022/08/12 03:12:37;;;;;;;5.45;2.95;;;12.60;99.90;;;;;;5055167;28;20047;-76
2022/08/12 03:15:10;;;;;;;6.70;3.58;;;12.70;99.90;;;;;;5038151;28;20044;-76
2022/08/12 03:17:48;;;;;;;5.32;3.50;;;12.70;99.90;;;;;;5055837;28;20120;-78
2022/08/12 03:20:19;;;;;;;8.48;3.50;;;12.70;99.90;;;;;;5038821;28;20488;-76
2022/08/12 03:22:48;;;;;;;10.05;3.88;;;12.70;99.90;;;;;;5055928;28;20499;-76
2022/08/12 03:25:17;;;;;;;8.30;4.70;;;12.60;99.90;;;;;;5056438;28;20047;-77
2022/08/12 03:27:50;;;;;;;6.60;4.07;;;12.60;99.90;;;;;;5055748;28;20041;-77
2022/08/12 03:30:20;;;;;;;5.50;4.18;;;12.60;99.90;;;;;;5055750;28;20037;-77
2022/08/12 03:32:49;;;;;;;6.97;4.13;;;12.60;99.90;;;;;;5038230;28;20037;-78
2022/08/12 03:35:25;;;;;;;6.70;4.03;;;12.70;99.90;;;;;;5037947;28;20044;-76
2022/08/12 03:37:55;;;;;;;7.40;4.40;;;12.70;99.90;;;;;;5037848;28;20048;-76
2022/08/12 04:02:33;;;;;;;5.93;3.20;;;12.90;99.90;;;;;;5058214;28;20097;-76
2022/08/12 04:05:01;;;;;;;7.43;3.55;;;13.00;99.90;;;;;;5074574;28;20044;-76
2022/08/12 04:07:30;;;;;;;6.60;3.70;;;13.00;99.90;;;;;;5073747;28;20475;-75
2022/08/12 04:09:58;;;;;;;7.95;3.60;;;13.00;99.90;;;;;;5085604;28;20075;-75
2022/08/12 04:15:13;;;;;;;7.38;4.20;;;13.10;99.90;;;;;;5094393;28;20047;-76
2022/08/12 04:17:43;;;;;;;5.40;3.40;;;13.10;99.90;;;;;;5094309;28;20043;-76
2022/08/12 04:20:12;;;;;;;9.20;3.55;;;13.10;99.90;;;;;;5094568;28;20051;-77
2022/08/12 04:22:40;;;;;;;8.85;3.55;;;13.10;99.90;;;;;;5076279;28;20503;-78
2022/08/12 04:25:11;;;;;;;7.68;3.80;;;13.20;99.90;;;;;;5093761;28;20052;-77
2022/08/12 04:27:39;;;;;;;9.07;3.90;;;13.30;99.90;;;;;;5095275;28;20067;-76
2022/08/12 04:30:07;;;;;;;7.07;3.63;;;13.30;99.90;;;;;;5076839;28;20055;-76
2022/08/12 04:32:35;;;;;;;7.68;3.28;;;13.30;99.90;;;;;;5095052;28;20093;-76
2022/08/12 04:35:05;;;;;;;6.20;3.80;;;13.40;99.90;;;;;;5098568;28;20109;-77
2022/08/12 04:37:33;;;;;;;10.23;4.32;;;13.50;99.90;;;;;;5099735;28;20052;-77
2022/08/12 04:40:01;;;;;;;11.05;4.82;;;13.70;99.90;;;;;;5098790;28;20068;-78
2022/08/12 04:42:28;;;;;;;15.02;5.38;;;13.80;99.90;;;;;;5099329;28;20044;-76
2022/08/12 04:44:56;;;;;;;8.38;4.53;;;14.00;99.90;;;;;;5081409;28;20047;-77
2022/08/12 04:47:24;;;;;;;10.10;4.03;;;14.10;99.90;;;;;;5099963;28;20040;-78
2022/08/12 04:49:51;;;;;;;12.82;4.07;;;14.30;99.90;;;;;;5099121;28;20077;-75
2022/08/12 04:52:20;;;;;;;9.52;4.50;;;14.30;99.90;;;;;;5101743;28;20039;-75
2022/08/12 04:54:48;;;;;;;11.30;4.90;;;14.30;99.90;;;;;;5081149;28;20052;-77
2022/08/12 04:57:15;;;;;;;13.05;6.82;;;14.40;99.90;;;;;;5098501;28;20093;-75
2022/08/12 04:59:42;;;;;;;30.45;17.20;;;14.60;99.90;;;;;;5080364;28;20117;-76
2022/08/12 05:02:10;;;;;;;59.53;35.55;;;14.60;99.90;;;;;;5098487;28;20487;-77
2022/08/12 05:04:38;;;;;;;43.72;21.90;;;14.80;99.90;;;;;;5100021;28;20054;-77
2022/08/12 05:07:08;;;;;;;27.73;14.15;;;14.90;99.90;;;;;;5080801;28;20044;-76
2022/08/12 05:09:37;;;;;;;16.70;7.65;;;15.00;99.90;;;;;;5098824;28;20036;-77
2022/08/12 05:12:06;;;;;;;15.38;7.78;;;15.10;99.90;;;;;;5079637;28;20052;-77
2022/08/12 05:14:33;;;;;;;9.77;4.80;;;15.30;99.90;;;;;;5097291;28;20040;-76
2022/08/12 05:17:00;;;;;;;10.73;3.78;;;15.30;99.90;;;;;;5097524;28;20560;-75
2022/08/12 05:19:29;;;;;;;7.03;3.63;;;15.50;99.90;;;;;;5097423;28;20161;-77
2022/08/12 05:21:56;;;;;;;12.32;4.07;;;15.50;99.90;;;;;;5097560;28;20067;-76
2022/08/12 05:24:23;;;;;;;9.30;4.70;;;15.60;99.90;;;;;;5079372;28;20406;-77
2022/08/12 05:26:53;;;;;;;11.70;6.35;;;15.80;99.90;;;;;;5078978;28;20388;-76
2022/08/12 05:29:20;;;;;;;12.13;6.57;;;15.80;99.90;;;;;;5096767;28;20124;-77
2022/08/12 05:31:48;;;;;;;12.02;5.22;;;15.80;99.90;;;;;;5096879;28;20054;-77
2022/08/12 05:34:15;;;;;;;14.60;5.70;;;15.90;99.90;;;;;;5097827;28;20040;-75
2022/08/12 05:36:43;;;;;;;12.30;5.38;;;16.10;99.90;;;;;;5097145;28;20036;-76
2022/08/12 05:39:11;;;;;;;30.17;11.32;;;16.30;99.90;;;;;;5097413;28;20040;-77
2022/08/12 05:41:38;;;;;;;29.90;8.63;;;16.50;99.90;;;;;;5097638;28;20109;-77
2022/08/12 05:44:08;;;;;;;17.08;5.15;;;16.50;99.90;;;;;;5099283;28;20119;-76
2022/08/12 05:46:36;;;;;;;11.40;4.43;;;16.70;99.90;;;;;;5100351;28;20494;-77
2022/08/12 05:49:05;;;;;;;17.10;5.13;;;16.90;99.90;;;;;;5097220;28;20078;-77
2022/08/12 05:51:35;;;;;;;15.38;4.90;;;17.00;99.90;;;;;;5079810;28;20105;-76
2022/08/12 05:54:02;;;;;;;15.55;5.47;;;17.20;99.90;;;;;;5098212;28;20032;-76
2022/08/12 05:56:31;;;;;;;13.00;4.95;;;17.40;99.90;;;;;;5078679;28;20048;-76
2022/08/12 05:59:00;;;;;;;17.63;5.40;;;17.60;99.90;;;;;;5098518;28;20425;-79
2022/08/12 06:01:30;;;;;;;14.57;5.82;;;17.80;99.90;;;;;;5088901;28;20071;-79
2022/08/12 06:03:57;;;;;;;26.42;7.40;;;17.80;99.90;;;;;;5088559;28;20525;-78
2022/08/12 06:06:26;;;;;;;19.70;6.40;;;17.60;99.90;;;;;;5105846;28;20109;-79
2022/08/12 06:08:55;;;;;;;15.68;5.03;;;17.30;99.90;;;;;;5104138;28;20067;-78
2022/08/12 06:11:23;;;;;;;17.73;7.53;;;17.10;99.90;;;;;;5108484;28;20043;-77
2022/08/12 06:13:51;;;;;;;18.13;6.15;;;17.00;99.90;;;;;;5108172;28;20036;-77
2022/08/12 06:16:20;;;;;;;14.63;5.07;;;16.80;99.90;;;;;;5110152;28;20044;-77
2022/08/12 06:18:50;;;;;;;11.35;4.60;;;16.70;99.90;;;;;;5088458;28;20112;-78
2022/08/12 06:21:20;;;;;;;9.20;4.65;;;16.60;99.90;;;;;;5107141;28;20048;-78
2022/08/12 06:23:47;;;;;;;9.15;3.80;;;16.70;99.90;;;;;;5107821;28;20040;-79
2022/08/12 06:26:15;;;;;;;10.38;4.35;;;16.80;99.90;;;;;;5109817;28;20048;-77
2022/08/12 06:28:43;;;;;;;10.65;4.70;;;16.90;99.90;;;;;;5107779;28;20097;-76
2022/08/12 06:31:15;;;;;;;10.52;5.22;;;17.10;99.90;;;;;;5106891;28;20044;-77
2022/08/12 06:33:44;;;;;;;6.72;4.03;;;17.20;99.90;;;;;;5108487;28;20051;-78
2022/08/12 06:36:15;;;;;;;7.70;4.68;;;17.40;99.90;;;;;;5088239;28;20117;-78
2022/08/12 06:38:43;;;;;;;15.20;9.18;;;17.50;99.90;;;;;;5106317;28;20104;-77
2022/08/12 06:43:57;;;;;;;15.77;9.20;;;17.70;99.90;;;;;;5102438;28;20063;-78
2022/08/12 06:46:26;;;;;;;10.80;5.65;;;17.80;99.90;;;;;;5102473;28;20281;-77
2022/08/12 06:48:57;;;;;;;8.15;4.82;;;18.10;99.90;;;;;;5102278;28;20056;-78
2022/08/12 06:51:27;;;;;;;9.70;4.57;;;18.20;99.90;;;;;;5080724;28;20139;-77
2022/08/12 06:53:55;;;;;;;11.05;4.68;;;18.40;99.90;;;;;;5079116;28;20048;-76
2022/08/12 06:56:22;;;;;;;13.15;4.28;;;18.60;99.90;;;;;;5074451;28;20075;-77
2022/08/12 06:58:50;;;;;;;8.90;3.90;;;18.70;99.90;;;;;;5095419;28;20410;-76
2022/08/12 07:01:18;;;;;;;10.60;5.93;;;18.90;99.90;;;;;;5079060;28;20051;-77
2022/08/12 07:03:45;;;;;;;10.43;4.80;;;19.10;99.90;;;;;;5095991;28;20050;-77
2022/08/12 07:06:13;;;;;;;16.42;8.27;;;19.30;99.90;;;;;;5095615;28;20078;-76
2022/08/12 07:08:43;;;;;;;18.20;9.85;;;19.40;99.90;;;;;;5095840;28;20522;-77
2022/08/12 07:11:14;;;;;;;13.35;7.90;;;19.60;99.90;;;;;;5094712;28;20402;-76
2022/08/12 07:13:44;;;;;;;20.75;14.93;;;19.60;99.90;;;;;;5095306;28;20032;-76
2022/08/12 07:16:13;;;;;;;12.40;5.38;;;19.70;99.90;;;;;;5071074;28;20502;-71
2022/08/12 07:18:41;;;;;;;15.07;5.57;;;19.80;99.90;;;;;;5094608;28;20449;-71
2022/08/12 07:21:09;;;;;;;18.10;8.73;;;20.00;99.90;;;;;;5094101;28;20044;-71
2022/08/12 07:23:38;;;;;;;15.77;6.20;;;20.30;99.90;;;;;;5083065;28;20040;-71
2022/08/12 07:26:09;;;;;;;15.57;5.43;;;20.60;99.90;;;;;;5078770;28;20113;-70
2022/08/12 07:28:38;;;;;;;11.98;6.10;;;20.80;99.90;;;;;;5092909;28;20040;-70
2022/08/12 07:31:08;;;;;;;14.32;6.15;;;20.90;99.90;;;;;;5093471;28;20067;-70
2022/08/12 07:33:38;;;;;;;14.57;6.22;;;20.90;99.90;;;;;;5093607;28;20054;-70
2022/08/12 07:36:07;;;;;;;15.23;7.80;;;20.70;99.90;;;;;;5094210;28;20105;-71
2022/08/12 07:38:37;;;;;;;14.18;8.57;;;20.80;99.90;;;;;;5094841;28;20403;-71
2022/08/12 07:41:11;;;;;;;14.70;7.65;;;20.90;99.90;;;;;;5094649;28;20044;-71
2022/08/12 07:43:40;;;;;;;13.35;7.60;;;21.10;99.90;;;;;;5094668;28;20498;-71
2022/08/12 07:46:10;;;;;;;11.80;5.88;;;21.60;99.90;;;;;;5093073;28;20043;-71
2022/08/12 07:48:40;;;;;;;11.95;5.38;;;22.00;99.90;;;;;;5093585;28;20066;-70
2022/08/12 07:51:07;;;;;;;12.38;4.78;;;22.20;99.90;;;;;;5093587;28;20048;-69
2022/08/12 07:53:35;;;;;;;14.93;5.60;;;22.30;99.90;;;;;;5093998;28;20036;-70
2022/08/12 07:56:04;;;;;;;11.02;6.80;;;22.40;99.90;;;;;;5093901;28;20113;-71
2022/08/12 07:58:38;;;;;;;12.15;5.65;;;22.40;99.90;;;;;;5075793;28;20040;-70
2022/08/12 08:01:05;;;;;;;11.63;6.75;;;22.40;99.90;;;;;;5075265;28;20051;-71
2022/08/12 08:03:33;;;;;;;12.38;7.70;;;22.60;99.90;;;;;;5093070;28;20039;-71
2022/08/12 08:06:00;;;;;;;18.40;9.98;;;22.80;99.90;;;;;;5094080;28;20372;-72
2022/08/12 08:08:28;;;;;;;12.30;8.25;;;23.00;99.90;;;;;;5093149;28;20040;-70
2022/08/12 08:13:41;;;;;;;18.40;10.05;;;23.00;99.90;;;;;;5092136;28;20054;-71
2022/08/12 08:16:09;;;;;;;16.98;8.32;;;23.20;99.90;;;;;;5093430;28;20046;-71
2022/08/12 08:18:37;;;;;;;22.27;10.10;;;23.30;99.90;;;;;;5087435;28;20096;-71
2022/08/12 08:21:05;;;;;;;9.18;5.47;;;23.20;99.90;;;;;;5094285;28;20044;-71
2022/08/12 08:26:21;;;;;;;22.48;10.15;;;23.30;99.90;;;;;;5075871;28;20072;-70
2022/08/12 08:28:49;;;;;;;22.02;8.90;;;23.70;99.90;;;;;;5094349;28;20544;-71
2022/08/12 08:31:17;;;;;;;15.45;8.15;;;24.10;99.90;;;;;;5095253;28;20051;-71
2022/08/12 08:33:44;;;;;;;13.40;6.45;;;24.50;99.90;;;;;;5095758;28;20116;-70
2022/08/12 08:36:12;;;;;;;13.05;7.75;;;24.70;99.50;;;;;;5097730;28;20494;-71
2022/08/12 08:38:43;;;;;;;10.07;5.13;;;25.00;98.00;;;;;;5096945;28;20066;-70
2022/08/12 08:43:59;;;;;;;8.77;5.07;;;25.30;93.40;;;;;;5094215;28;20129;-70
2022/08/12 08:46:27;;;;;;;11.77;5.05;;;25.60;92.60;;;;;;5094374;28;20052;-72
2022/08/12 08:48:55;;;;;;;11.85;6.80;;;26.20;91.30;;;;;;5094496;28;20380;-71
2022/08/12 08:51:25;;;;;;;11.02;5.68;;;26.70;89.30;;;;;;5093955;28;20131;-70
2022/08/12 08:53:53;;;;;;;13.43;6.53;;;26.90;89.20;;;;;;5095128;28;20487;-70
2022/08/12 08:56:21;;;;;;;11.77;4.93;;;27.30;87.00;;;;;;5094489;28;20044;-68
2022/08/12 08:58:48;;;;;;;9.35;5.30;;;27.40;85.80;;;;;;5096186;28;20123;-72
2022/08/12 09:01:21;;;;;;;14.88;5.72;;;27.70;86.50;;;;;;5094030;28;20047;-69
2022/08/12 09:03:48;;;;;;;11.43;5.30;;;27.80;84.90;;;;;;5095675;28;20086;-72
2022/08/12 09:06:16;;;;;;;16.23;6.65;;;27.70;83.40;;;;;;5095342;28;20044;-70
2022/08/12 09:08:44;;;;;;;15.10;8.05;;;27.80;83.50;;;;;;5094136;28;20059;-70
2022/08/12 09:13:56;;;;;;;12.15;5.68;;;28.00;82.70;;;;;;5093900;28;20037;-71
2022/08/12 09:16:24;;;;;;;9.98;4.47;;;28.10;82.10;;;;;;5094134;28;20048;-70
2022/08/12 09:18:52;;;;;;;13.65;8.25;;;28.20;81.10;;;;;;5088015;28;20067;-71
2022/08/12 09:21:19;;;;;;;14.07;6.38;;;28.30;80.70;;;;;;5096099;28;20047;-70
2022/08/12 09:23:48;;;;;;;11.48;5.00;;;28.20;80.00;;;;;;5098533;28;20058;-70
2022/08/12 09:26:17;;;;;;;11.95;7.30;;;28.30;79.60;;;;;;5098482;28;20559;-71
2022/08/12 09:28:46;;;;;;;13.88;6.43;;;28.10;79.80;;;;;;5099274;28;20048;-70
2022/08/12 09:31:13;;;;;;;11.82;6.00;;;28.40;79.00;;;;;;5098972;28;20040;-70
2022/08/12 09:33:42;;;;;;;10.10;5.40;;;28.50;78.00;;;;;;5104157;28;20073;-70
2022/08/12 09:36:09;;;;;;;12.30;5.95;;;29.10;77.00;;;;;;5111874;28;20531;-71
2022/08/12 09:38:38;;;;;;;7.53;4.75;;;29.30;75.00;;;;;;5110817;28;20048;-71
2022/08/12 09:41:05;;;;;;;7.15;3.90;;;29.10;74.00;;;;;;5110475;28;20040;-70
2022/08/12 09:46:18;;;;;;;11.05;5.20;;;28.20;74.90;;;;;;5107360;28;20044;-71
2022/08/12 09:48:46;;;;;;;9.38;3.80;;;28.30;75.10;;;;;;5101845;28;20066;-71
2022/08/12 09:51:15;;;;;;;15.02;6.65;;;28.40;72.70;;;;;;5054133;23;20046;-75
2022/08/12 09:53:42;;;;;;;9.77;4.78;;;28.50;73.20;;;;;;5018033;28;20045;-75
2022/08/12 09:56:11;;;;;;;13.52;6.03;;;28.50;73.00;;;;;;5002936;28;20467;-75
2022/08/12 09:58:40;;;;;;;7.88;4.25;;;28.50;71.80;;;;;;5030707;28;20068;-74
2022/08/12 10:01:07;;;;;;;5.65;3.45;;;28.20;71.60;;;;;;5009731;28;20049;-74
2022/08/12 10:03:37;;;;;;;3.63;2.10;;;28.00;68.70;;;;;;5011479;28;20389;-75
2022/08/12 10:06:06;;;;;;;3.85;2.78;;;27.80;67.30;;;;;;5027277;28;20057;-75
2022/08/12 10:08:36;;;;;;;4.03;2.80;;;28.00;67.90;;;;;;5005677;28;20113;-75
2022/08/12 10:13:52;;;;;;;6.47;3.33;;;28.30;65.90;;;;;;5007198;28;20500;-74
2022/08/12 10:16:21;;;;;;;6.43;1.98;;;28.30;66.90;;;;;;5019694;28;20116;-76
2022/08/12 10:18:50;;;;;;;3.67;1.70;;;28.30;60.90;;;;;;5000990;28;20520;-75
2022/08/12 10:21:20;;;;;;;8.20;3.10;;;28.00;57.50;;;;;;5019015;28;20120;-76
2022/08/12 10:23:49;;;;;;;5.82;1.70;;;27.40;57.30;;;;;;5018069;28;20042;-75
2022/08/12 10:31:50;;;;;;;8.48;1.52;;;27.90;54.40;;;;;;5001160;28;20398;-76
2022/08/12 10:34:21;;;;;;;4.70;1.50;;;27.90;53.50;;;;;;5018115;28;20137;-76
2022/08/12 10:36:54;;;;;;;2.75;1.30;;;28.00;54.60;;;;;;5019044;28;20046;-75
2022/08/12 10:39:22;;;;;;;4.43;1.98;;;27.80;52.50;;;;;;5003874;28;20433;-76
2022/08/12 10:44:35;;;;;;;6.60;1.52;;;27.40;52.10;;;;;;5008079;28;20041;-75
2022/08/12 10:47:03;;;;;;;4.40;1.40;;;27.20;51.70;;;;;;5018142;28;20404;-75
2022/08/12 10:49:33;;;;;;;4.03;1.92;;;27.00;51.80;;;;;;5000452;28;20132;-75
2022/08/12 10:52:02;;;;;;;3.35;1.38;;;27.30;52.00;;;;;;5016881;28;20054;-75
2022/08/12 10:54:30;;;;;;;4.13;1.67;;;27.40;51.70;;;;;;5037406;28;20061;-74
2022/08/12 10:56:59;;;;;;;3.95;1.73;;;27.50;52.20;;;;;;5036255;28;20038;-74
2022/08/12 10:59:28;;;;;;;5.38;1.98;;;27.60;53.60;;;;;;5018707;28;20053;-74
2022/08/12 11:01:55;;;;;;;4.10;1.60;;;27.70;54.50;;;;;;5018443;28;20417;-75
2022/08/12 11:04:23;;;;;;;7.22;4.45;;;27.50;55.50;;;;;;5036109;28;20050;-74
2022/08/12 11:06:52;;;;;;;4.80;1.75;;;27.70;56.60;;;;;;5037210;28;20048;-74
2022/08/12 11:09:26;;;;;;;4.53;2.25;;;27.70;57.00;;;;;;5042463;28;20045;-74
2022/08/12 11:11:55;;;;;;;3.97;1.92;;;27.60;57.50;;;;;;5046303;28;20041;-75
2022/08/12 11:14:27;;;;;;;7.60;5.75;;;27.80;56.50;;;;;;5046600;28;20097;-74
2022/08/12 11:16:56;;;;;;;5.03;2.50;;;27.80;56.70;;;;;;5045677;28;20441;-73
2022/08/12 11:19:23;;;;;;;4.10;2.00;;;27.90;56.70;;;;;;5047239;28;20042;-74
2022/08/12 11:21:53;;;;;;;5.28;1.92;;;27.80;55.60;;;;;;5038778;28;20464;-74
2022/08/12 11:24:22;;;;;;;4.38;1.73;;;27.60;55.90;;;;;;5035315;28;20444;-75
2022/08/12 11:26:49;;;;;;;5.10;2.83;;;27.50;55.00;;;;;;5035966;28;20148;-75
2022/08/12 11:29:17;;;;;;;3.92;2.17;;;27.50;56.00;;;;;;5035119;28;20049;-74
2022/08/12 11:31:45;;;;;;;5.15;1.98;;;27.50;54.90;;;;;;5035842;28;20049;-74
2022/08/12 11:34:12;;;;;;;4.45;1.75;;;27.30;55.50;;;;;;5036241;28;20042;-74
2022/08/12 11:36:49;;;;;;;3.83;2.50;;;27.10;56.20;;;;;;5035172;28;20099;-74
2022/08/12 11:39:16;;;;;;;4.38;2.05;;;27.30;56.30;;;;;;5038482;28;20049;-75
2022/08/12 11:41:45;;;;;;;4.05;1.80;;;27.40;56.50;;;;;;5036232;28;20045;-75
2022/08/12 11:44:12;;;;;;;9.10;2.40;;;27.30;56.20;;;;;;5040052;28;20045;-75
2022/08/12 11:46:41;;;;;;;5.80;2.20;;;27.40;56.60;;;;;;5019910;28;20043;-74
2022/08/12 11:49:09;;;;;;;5.68;2.30;;;27.40;56.10;;;;;;5020569;28;20107;-74
2022/08/12 11:51:37;;;;;;;4.30;2.10;;;27.30;56.10;;;;;;5036209;28;20065;-75
2022/08/12 11:54:05;;;;;;;4.03;2.00;;;27.50;55.70;;;;;;5036017;28;20096;-75
2022/08/12 11:56:32;;;;;;;2.67;1.70;;;27.70;55.40;;;;;;5035523;28;20042;-76
2022/08/12 11:59:01;;;;;;;4.95;1.92;;;27.70;54.10;;;;;;5034744;28;20052;-76
2022/08/12 12:01:28;;;;;;;4.35;1.85;;;27.50;54.60;;;;;;5035903;28;20133;-76
2022/08/12 12:03:56;;;;;;;3.72;1.83;;;27.50;54.20;;;;;;5036593;28;20042;-76
2022/08/12 12:06:23;;;;;;;4.40;2.10;;;27.80;54.10;;;;;;5036823;28;20041;-76
2022/08/12 12:08:51;;;;;;;6.53;2.20;;;28.10;54.30;;;;;;5035204;28;20052;-76
2022/08/12 12:11:18;;;;;;;3.13;2.00;;;27.90;53.50;;;;;;5035782;28;20519;-75
2022/08/12 12:13:46;;;;;;;2.70;1.88;;;27.80;54.00;;;;;;5035648;28;20118;-76
2022/08/12 12:16:15;;;;;;;6.32;2.25;;;28.00;54.10;;;;;;5018065;28;20496;-76
2022/08/12 12:18:42;;;;;;;3.72;2.40;;;28.00;54.40;;;;;;5001558;28;20070;-76
2022/08/12 12:21:10;;;;;;;6.05;2.30;;;27.90;54.30;;;;;;5015630;28;20046;-74
2022/08/12 12:23:37;;;;;;;3.17;1.88;;;28.00;53.70;;;;;;5016524;28;20045;-76
2022/08/12 12:26:05;;;;;;;5.82;2.10;;;27.90;52.50;;;;;;5015690;28;20489;-75
2022/08/12 12:28:33;;;;;;;6.00;2.85;;;27.80;52.90;;;;;;5032671;28;20040;-76
2022/08/12 12:31:01;;;;;;;5.78;1.85;;;27.90;53.10;;;;;;5047629;28;20120;-76
2022/08/12 12:33:30;;;;;;;2.95;1.70;;;28.00;52.70;;;;;;5036327;28;20064;-77
2022/08/12 12:35:57;;;;;;;5.07;2.08;;;28.00;53.10;;;;;;5045588;28;20408;-76
2022/08/12 12:38:24;;;;;;;5.00;1.80;;;27.90;53.40;;;;;;5025430;28;20493;-76
2022/08/12 12:40:52;;;;;;;3.67;2.20;;;27.50;53.60;;;;;;5040018;28;20097;-76
2022/08/12 12:43:20;;;;;;;7.72;2.83;;;27.50;54.50;;;;;;5043355;28;20048;-77
2022/08/12 12:45:49;;;;;;;6.75;2.30;;;27.50;53.80;;;;;;5021589;28;20053;-76
2022/08/12 12:48:18;;;;;;;3.35;2.20;;;27.40;54.60;;;;;;5036100;28;20096;-77
2022/08/12 12:51:14;;;;;;;4.50;2.58;;;27.60;54.30;;;;;;5022495;28;20053;-76
2022/08/12 12:53:39;;;;;;;8.10;2.75;;;27.70;54.20;;;;;;5040281;28;20060;-76
2022/08/12 12:56:11;;;;;;;8.00;2.95;;;27.60;53.80;;;;;;5035102;28;20041;-77
2022/08/12 12:58:41;;;;;;;5.05;2.40;;;27.60;54.00;;;;;;5039189;28;20041;-75
2022/08/12 13:01:09;;;;;;;4.68;2.45;;;27.50;54.60;;;;;;5039837;28;20049;-77
2022/08/12 13:03:36;;;;;;;4.35;2.28;;;27.40;54.20;;;;;;5038883;28;20407;-75
2022/08/12 13:06:07;;;;;;;4.65;2.67;;;27.20;54.50;;;;;;5040015;28;20449;-76
2022/08/12 13:08:35;;;;;;;6.20;2.88;;;27.20;55.10;;;;;;5039207;28;20080;-75
2022/08/12 13:11:04;;;;;;;4.55;2.80;;;27.40;55.30;;;;;;5038688;28;20412;-77
2022/08/12 13:13:33;;;;;;;5.32;4.00;;;27.50;54.70;;;;;;5039108;28;20099;-76
2022/08/12 13:16:01;;;;;;;7.03;3.38;;;27.60;54.60;;;;;;5039144;28;20049;-77
2022/08/12 13:18:30;;;;;;;7.05;2.60;;;27.70;54.60;;;;;;5041371;28;20077;-75
2022/08/12 13:20:58;;;;;;;3.45;2.50;;;27.70;54.90;;;;;;5039183;28;20408;-76
2022/08/12 13:23:27;;;;;;;4.65;2.50;;;27.80;54.70;;;;;;5038433;28;20041;-76
2022/08/12 13:25:55;;;;;;;4.18;2.78;;;28.00;54.50;;;;;;5037787;28;20037;-75
2022/08/12 13:28:23;;;;;;;3.38;2.28;;;28.20;54.10;;;;;;5038552;28;20045;-76
2022/08/12 13:30:54;;;;;;;5.90;2.72;;;28.10;53.70;;;;;;5021535;28;20443;-76
2022/08/12 13:33:24;;;;;;;4.38;2.92;;;27.90;54.70;;;;;;5021306;28;20101;-76
2022/08/12 13:35:53;;;;;;;5.65;2.70;;;28.20;54.90;;;;;;5040327;28;20046;-76
2022/08/12 13:38:26;;;;;;;4.70;2.95;;;28.30;54.70;;;;;;5021076;28;20496;-77
2022/08/12 13:40:57;;;;;;;4.80;2.30;;;28.30;54.60;;;;;;5021389;28;20056;-76
2022/08/12 13:43:24;;;;;;;4.35;2.90;;;28.10;54.40;;;;;;5038741;28;20037;-76
2022/08/12 13:45:51;;;;;;;4.38;2.60;;;28.10;55.50;;;;;;5019785;28;20076;-77
2022/08/12 13:48:19;;;;;;;4.93;2.67;;;28.00;55.10;;;;;;5020607;28;20474;-76
2022/08/12 13:50:46;;;;;;;4.38;2.40;;;28.10;55.40;;;;;;5046719;28;20045;-77
2022/08/12 13:53:15;;;;;;;5.07;2.50;;;28.30;55.20;;;;;;5054168;28;20045;-77
2022/08/12 13:55:45;;;;;;;4.15;2.80;;;28.30;55.30;;;;;;5054096;28;20113;-77
2022/08/12 13:58:16;;;;;;;5.32;2.70;;;28.00;56.00;;;;;;5035731;28;20049;-75
2022/08/12 14:00:45;;;;;;;5.40;3.10;;;28.10;55.60;;;;;;5048430;28;20108;-77
2022/08/12 14:03:13;;;;;;;5.78;2.53;;;27.90;55.90;;;;;;5037973;28;20045;-77
2022/08/12 14:05:40;;;;;;;4.03;2.80;;;27.90;56.00;;;;;;5020605;28;20049;-76
2022/08/12 14:08:10;;;;;;;9.32;3.00;;;27.90;55.90;;;;;;5020335;28;20536;-77
2022/08/12 14:10:39;;;;;;;6.15;2.80;;;27.80;56.10;;;;;;5039626;28;20042;-77
2022/08/12 14:13:09;;;;;;;8.88;3.35;;;27.80;56.50;;;;;;5021922;28;20049;-75
2022/08/12 14:15:40;;;;;;;5.05;2.92;;;27.70;56.60;;;;;;5039044;28;20088;-77
2022/08/12 14:18:15;;;;;;;4.88;2.80;;;27.80;56.90;;;;;;5031161;28;20041;-76
2022/08/12 14:20:43;;;;;;;5.28;2.78;;;27.90;56.40;;;;;;5037458;28;20041;-76
2022/08/12 14:23:14;;;;;;;5.45;3.22;;;28.20;56.40;;;;;;5039018;28;20554;-77
2022/08/12 14:25:42;;;;;;;5.45;2.97;;;28.30;56.10;;;;;;5010178;28;20049;-77
2022/08/12 14:28:11;;;;;;;5.22;2.80;;;28.50;55.70;;;;;;5001021;28;20045;-76
2022/08/12 14:30:52;;;;;;;7.53;3.22;;;28.60;55.40;;;;;;5019444;28;20433;-75
2022/08/12 14:33:21;;;;;;;5.72;3.22;;;28.50;55.70;;;;;;5022965;28;20069;-77
2022/08/12 14:35:50;;;;;;;5.68;2.58;;;28.40;56.00;;;;;;5041041;28;20045;-76
2022/08/12 14:38:20;;;;;;;5.53;2.88;;;28.50;56.00;;;;;;5020595;28;20068;-76
2022/08/12 14:40:49;;;;;;;7.18;3.10;;;28.50;55.50;;;;;;5038903;28;20064;-76